Orleans, Michigan
Current Conditions -  °F | °C
As of 4:14 PM on Tuesday 21 Oct 2014 (Local Time) from KY70 Reporting Station
Overcast Overcast  
Wind Chill: 44°   Ceiling: 2900
Heat Index: 48°   Visibility: 10mi
Dew Point: 37°   Wind: 9mph
Humidity: 65%   Direction: 20°NNE
Pressure: 30.14"   Gusts: NA
Location:  43.07°N, 85.13°W
Report Text: KY70 212014Z AUTO 02008KT 10SM OVC029 09/03 A3014 RMK AO2 T00900027
Loading
Personal Weather Stations






























Interactive Weather Map
Tropical Storm Tracking
New forecast layout! Learn more

10-Day Weather Forecast

Advertisements
Track Severe Weather on mobile